sensor_id;sensor_type;location;lat;lon;timestamp;P1;durP1;ratioP1;P2;durP2;ratioP2
76336;SDS011;65157;50.082;18.178;2024-02-04T00:01:26;2.30;;;2.10;;
76336;SDS011;65157;50.082;18.178;2024-02-04T00:03:52;2.90;;;2.20;;
76336;SDS011;65157;50.082;18.178;2024-02-04T00:08:46;2.40;;;2.20;;
76336;SDS011;65157;50.082;18.178;2024-02-04T00:11:13;3.00;;;2.30;;
76336;SDS011;65157;50.082;18.178;2024-02-04T00:13:40;3.60;;;3.30;;
76336;SDS011;65157;50.082;18.178;2024-02-04T00:16:06;2.10;;;2.00;;
76336;SDS011;65157;50.082;18.178;2024-02-04T00:18:33;2.80;;;2.70;;
76336;SDS011;65157;50.082;18.178;2024-02-04T00:21:00;2.00;;;1.90;;
76336;SDS011;65157;50.082;18.178;2024-02-04T00:23:27;2.40;;;2.20;;
76336;SDS011;65157;50.082;18.178;2024-02-04T00:25:53;1.60;;;1.50;;
76336;SDS011;65157;50.082;18.178;2024-02-04T00:28:20;1.80;;;1.70;;
76336;SDS011;65157;50.082;18.178;2024-02-04T00:30:47;2.60;;;2.40;;
76336;SDS011;65157;50.082;18.178;2024-02-04T00:33:13;2.30;;;2.10;;
76336;SDS011;65157;50.082;18.178;2024-02-04T00:35:40;2.20;;;2.10;;
76336;SDS011;65157;50.082;18.178;2024-02-04T00:38:06;2.10;;;1.90;;
76336;SDS011;65157;50.082;18.178;2024-02-04T00:40:33;3.00;;;2.80;;
76336;SDS011;65157;50.082;18.178;2024-02-04T00:43:00;2.60;;;2.40;;
76336;SDS011;65157;50.082;18.178;2024-02-04T00:45:27;2.50;;;2.30;;
76336;SDS011;65157;50.082;18.178;2024-02-04T00:47:53;1.80;;;1.70;;
76336;SDS011;65157;50.082;18.178;2024-02-04T00:50:20;2.90;;;2.60;;
76336;SDS011;65157;50.082;18.178;2024-02-04T00:52:47;4.80;;;4.40;;
76336;SDS011;65157;50.082;18.178;2024-02-04T00:55:14;4.20;;;3.80;;
76336;SDS011;65157;50.082;18.178;2024-02-04T00:57:40;4.70;;;3.30;;
76336;SDS011;65157;50.082;18.178;2024-02-04T01:00:07;4.30;;;2.80;;
76336;SDS011;65157;50.082;18.178;2024-02-04T01:05:00;3.30;;;2.00;;
76336;SDS011;65157;50.082;18.178;2024-02-04T01:07:27;2.90;;;2.00;;
76336;SDS011;65157;50.082;18.178;2024-02-04T01:09:54;1.80;;;1.70;;
76336;SDS011;65157;50.082;18.178;2024-02-04T01:12:20;2.50;;;2.30;;
76336;SDS011;65157;50.082;18.178;2024-02-04T01:14:47;1.80;;;1.50;;
76336;SDS011;65157;50.082;18.178;2024-02-04T01:17:14;2.10;;;1.90;;
76336;SDS011;65157;50.082;18.178;2024-02-04T01:19:42;3.00;;;2.80;;
76336;SDS011;65157;50.082;18.178;2024-02-04T01:22:09;2.60;;;1.90;;
76336;SDS011;65157;50.082;18.178;2024-02-04T01:24:36;2.50;;;1.80;;
76336;SDS011;65157;50.082;18.178;2024-02-04T01:27:03;2.60;;;2.00;;
76336;SDS011;65157;50.082;18.178;2024-02-04T01:29:30;2.30;;;2.10;;
76336;SDS011;65157;50.082;18.178;2024-02-04T01:31:56;1.90;;;1.80;;
76336;SDS011;65157;50.082;18.178;2024-02-04T01:34:23;2.90;;;2.70;;
76336;SDS011;65157;50.082;18.178;2024-02-04T01:36:49;3.10;;;2.30;;
76336;SDS011;65157;50.082;18.178;2024-02-04T01:39:16;3.00;;;2.50;;
76336;SDS011;65157;50.082;18.178;2024-02-04T01:41:43;2.80;;;2.50;;
76336;SDS011;65157;50.082;18.178;2024-02-04T01:44:09;2.10;;;1.80;;
76336;SDS011;65157;50.082;18.178;2024-02-04T01:46:36;2.40;;;2.20;;
76336;SDS011;65157;50.082;18.178;2024-02-04T01:49:03;2.40;;;1.90;;
76336;SDS011;65157;50.082;18.178;2024-02-04T01:51:29;2.50;;;2.30;;
76336;SDS011;65157;50.082;18.178;2024-02-04T01:53:56;2.00;;;1.70;;
76336;SDS011;65157;50.082;18.178;2024-02-04T01:56:23;1.90;;;1.70;;
76336;SDS011;65157;50.082;18.178;2024-02-04T01:58:49;1.90;;;1.80;;
76336;SDS011;65157;50.082;18.178;2024-02-04T02:01:16;2.30;;;1.70;;
76336;SDS011;65157;50.082;18.178;2024-02-04T02:03:43;1.60;;;1.50;;
76336;SDS011;65157;50.082;18.178;2024-02-04T02:06:09;2.30;;;2.20;;
76336;SDS011;65157;50.082;18.178;2024-02-04T02:08:36;1.80;;;1.70;;
76336;SDS011;65157;50.082;18.178;2024-02-04T02:11:08;1.60;;;1.50;;
76336;SDS011;65157;50.082;18.178;2024-02-04T02:13:39;2.70;;;2.60;;
76336;SDS011;65157;50.082;18.178;2024-02-04T02:16:09;1.00;;;1.00;;
76336;SDS011;65157;50.082;18.178;2024-02-04T02:18:44;1.20;;;1.20;;
76336;SDS011;65157;50.082;18.178;2024-02-04T02:24:05;2.90;;;2.80;;
76336;SDS011;65157;50.082;18.178;2024-02-04T02:26:37;1.40;;;1.30;;
76336;SDS011;65157;50.082;18.178;2024-02-04T02:29:05;1.60;;;1.50;;
76336;SDS011;65157;50.082;18.178;2024-02-04T02:31:35;1.70;;;1.60;;
76336;SDS011;65157;50.082;18.178;2024-02-04T02:34:05;1.90;;;1.80;;
76336;SDS011;65157;50.082;18.178;2024-02-04T02:37:16;1.80;;;1.70;;
76336;SDS011;65157;50.082;18.178;2024-02-04T02:39:27;1.80;;;1.80;;
76336;SDS011;65157;50.082;18.178;2024-02-04T02:41:59;2.40;;;2.00;;
76336;SDS011;65157;50.082;18.178;2024-02-04T02:44:30;2.10;;;2.00;;
76336;SDS011;65157;50.082;18.178;2024-02-04T02:46:59;1.90;;;1.80;;
76336;SDS011;65157;50.082;18.178;2024-02-04T02:49:29;2.30;;;2.10;;
76336;SDS011;65157;50.082;18.178;2024-02-04T02:51:55;2.40;;;2.30;;
76336;SDS011;65157;50.082;18.178;2024-02-04T02:54:22;1.70;;;1.60;;
76336;SDS011;65157;50.082;18.178;2024-02-04T02:56:48;3.00;;;2.70;;
76336;SDS011;65157;50.082;18.178;2024-02-04T02:59:15;2.00;;;1.90;;
76336;SDS011;65157;50.082;18.178;2024-02-04T03:01:42;3.20;;;2.60;;
76336;SDS011;65157;50.082;18.178;2024-02-04T03:04:09;2.40;;;2.10;;
76336;SDS011;65157;50.082;18.178;2024-02-04T03:06:35;4.00;;;2.90;;
76336;SDS011;65157;50.082;18.178;2024-02-04T03:09:02;4.60;;;3.60;;
76336;SDS011;65157;50.082;18.178;2024-02-04T03:11:29;2.90;;;2.70;;
76336;SDS011;65157;50.082;18.178;2024-02-04T03:13:55;3.40;;;3.10;;
76336;SDS011;65157;50.082;18.178;2024-02-04T03:16:22;3.90;;;3.60;;
76336;SDS011;65157;50.082;18.178;2024-02-04T03:18:48;3.80;;;3.40;;
76336;SDS011;65157;50.082;18.178;2024-02-04T03:21:16;3.20;;;3.00;;
76336;SDS011;65157;50.082;18.178;2024-02-04T03:23:43;2.80;;;2.60;;
76336;SDS011;65157;50.082;18.178;2024-02-04T03:26:11;2.10;;;1.90;;
76336;SDS011;65157;50.082;18.178;2024-02-04T03:28:43;2.50;;;2.40;;
76336;SDS011;65157;50.082;18.178;2024-02-04T03:31:09;2.40;;;2.20;;
76336;SDS011;65157;50.082;18.178;2024-02-04T03:36:03;1.70;;;1.60;;
76336;SDS011;65157;50.082;18.178;2024-02-04T03:38:30;2.10;;;2.00;;
76336;SDS011;65157;50.082;18.178;2024-02-04T03:40:56;2.40;;;2.30;;
76336;SDS011;65157;50.082;18.178;2024-02-04T03:43:23;2.10;;;1.90;;
76336;SDS011;65157;50.082;18.178;2024-02-04T03:48:16;1.50;;;1.40;;
76336;SDS011;65157;50.082;18.178;2024-02-04T03:50:43;2.30;;;2.20;;
76336;SDS011;65157;50.082;18.178;2024-02-04T03:53:10;1.40;;;1.40;;
76336;SDS011;65157;50.082;18.178;2024-02-04T03:55:36;2.00;;;1.90;;
76336;SDS011;65157;50.082;18.178;2024-02-04T03:58:03;2.00;;;1.90;;
76336;SDS011;65157;50.082;18.178;2024-02-04T04:00:29;2.20;;;1.90;;
76336;SDS011;65157;50.082;18.178;2024-02-04T04:02:56;2.30;;;2.20;;
76336;SDS011;65157;50.082;18.178;2024-02-04T04:05:23;1.60;;;1.60;;
76336;SDS011;65157;50.082;18.178;2024-02-04T04:07:51;2.40;;;2.30;;
76336;SDS011;65157;50.082;18.178;2024-02-04T04:10:17;1.90;;;1.80;;
76336;SDS011;65157;50.082;18.178;2024-02-04T04:12:44;2.80;;;2.50;;
76336;SDS011;65157;50.082;18.178;2024-02-04T04:15:10;3.90;;;3.60;;
76336;SDS011;65157;50.082;18.178;2024-02-04T04:17:37;2.00;;;1.90;;
76336;SDS011;65157;50.082;18.178;2024-02-04T04:20:05;2.80;;;2.60;;
76336;SDS011;65157;50.082;18.178;2024-02-04T04:22:35;2.90;;;2.70;;
76336;SDS011;65157;50.082;18.178;2024-02-04T04:25:01;2.40;;;2.20;;
76336;SDS011;65157;50.082;18.178;2024-02-04T04:27:28;2.10;;;2.00;;
76336;SDS011;65157;50.082;18.178;2024-02-04T04:29:55;2.30;;;1.90;;
76336;SDS011;65157;50.082;18.178;2024-02-04T04:32:21;2.80;;;2.60;;
76336;SDS011;65157;50.082;18.178;2024-02-04T04:34:48;3.60;;;2.50;;
76336;SDS011;65157;50.082;18.178;2024-02-04T04:37:15;2.90;;;2.50;;
76336;SDS011;65157;50.082;18.178;2024-02-04T04:39:41;5.10;;;3.30;;
76336;SDS011;65157;50.082;18.178;2024-02-04T04:42:08;5.20;;;3.60;;
76336;SDS011;65157;50.082;18.178;2024-02-04T04:44:34;14.20;;;5.80;;
76336;SDS011;65157;50.082;18.178;2024-02-04T04:47:01;17.60;;;6.50;;
76336;SDS011;65157;50.082;18.178;2024-02-04T04:49:28;14.70;;;6.00;;
76336;SDS011;65157;50.082;18.178;2024-02-04T04:51:54;11.30;;;5.80;;
76336;SDS011;65157;50.082;18.178;2024-02-04T04:54:21;9.60;;;4.90;;
76336;SDS011;65157;50.082;18.178;2024-02-04T04:56:59;7.70;;;4.40;;
76336;SDS011;65157;50.082;18.178;2024-02-04T04:59:25;3.10;;;2.80;;
76336;SDS011;65157;50.082;18.178;2024-02-04T05:01:52;2.50;;;2.20;;
76336;SDS011;65157;50.082;18.178;2024-02-04T05:04:18;2.60;;;2.20;;
76336;SDS011;65157;50.082;18.178;2024-02-04T05:06:45;2.50;;;2.30;;
76336;SDS011;65157;50.082;18.178;2024-02-04T05:09:13;2.70;;;2.50;;
76336;SDS011;65157;50.082;18.178;2024-02-04T05:11:40;3.60;;;2.30;;
76336;SDS011;65157;50.082;18.178;2024-02-04T05:14:06;3.50;;;3.30;;
76336;SDS011;65157;50.082;18.178;2024-02-04T05:16:34;3.90;;;2.60;;
76336;SDS011;65157;50.082;18.178;2024-02-04T05:19:02;2.90;;;2.70;;
76336;SDS011;65157;50.082;18.178;2024-02-04T05:21:29;2.60;;;2.50;;
76336;SDS011;65157;50.082;18.178;2024-02-04T05:23:55;2.40;;;2.30;;
76336;SDS011;65157;50.082;18.178;2024-02-04T05:26:22;3.30;;;2.60;;
76336;SDS011;65157;50.082;18.178;2024-02-04T05:28:48;2.50;;;2.30;;
76336;SDS011;65157;50.082;18.178;2024-02-04T05:31:15;3.40;;;3.10;;
76336;SDS011;65157;50.082;18.178;2024-02-04T05:33:42;2.90;;;2.40;;
76336;SDS011;65157;50.082;18.178;2024-02-04T05:36:08;3.90;;;2.30;;
76336;SDS011;65157;50.082;18.178;2024-02-04T05:38:35;3.60;;;3.30;;
76336;SDS011;65157;50.082;18.178;2024-02-04T05:41:02;3.40;;;3.10;;
76336;SDS011;65157;50.082;18.178;2024-02-04T05:43:29;4.30;;;3.90;;
76336;SDS011;65157;50.082;18.178;2024-02-04T05:45:55;2.60;;;2.40;;
76336;SDS011;65157;50.082;18.178;2024-02-04T05:48:22;3.70;;;3.30;;
76336;SDS011;65157;50.082;18.178;2024-02-04T05:50:48;2.60;;;2.40;;
76336;SDS011;65157;50.082;18.178;2024-02-04T05:53:15;3.10;;;2.90;;
76336;SDS011;65157;50.082;18.178;2024-02-04T05:55:42;1.60;;;1.50;;
76336;SDS011;65157;50.082;18.178;2024-02-04T05:58:08;2.80;;;2.50;;
76336;SDS011;65157;50.082;18.178;2024-02-04T06:00:35;3.70;;;3.50;;
76336;SDS011;65157;50.082;18.178;2024-02-04T06:03:02;2.60;;;2.40;;
76336;SDS011;65157;50.082;18.178;2024-02-04T06:05:29;3.60;;;3.30;;
76336;SDS011;65157;50.082;18.178;2024-02-04T06:07:55;3.10;;;2.90;;
76336;SDS011;65157;50.082;18.178;2024-02-04T06:10:22;2.80;;;2.60;;
76336;SDS011;65157;50.082;18.178;2024-02-04T06:12:49;3.90;;;3.20;;
76336;SDS011;65157;50.082;18.178;2024-02-04T06:15:15;3.20;;;2.90;;
76336;SDS011;65157;50.082;18.178;2024-02-04T06:17:43;3.00;;;2.60;;
76336;SDS011;65157;50.082;18.178;2024-02-04T06:20:10;3.90;;;3.60;;
76336;SDS011;65157;50.082;18.178;2024-02-04T06:22:37;3.80;;;3.30;;
76336;SDS011;65157;50.082;18.178;2024-02-04T06:25:03;2.20;;;2.00;;
76336;SDS011;65157;50.082;18.178;2024-02-04T06:27:31;2.30;;;2.10;;
76336;SDS011;65157;50.082;18.178;2024-02-04T06:29:58;2.90;;;2.10;;
76336;SDS011;65157;50.082;18.178;2024-02-04T06:32:25;3.00;;;2.70;;
76336;SDS011;65157;50.082;18.178;2024-02-04T06:34:52;3.50;;;2.00;;
76336;SDS011;65157;50.082;18.178;2024-02-04T06:37:18;3.00;;;2.30;;
76336;SDS011;65157;50.082;18.178;2024-02-04T06:39:45;3.50;;;3.20;;
76336;SDS011;65157;50.082;18.178;2024-02-04T06:42:11;3.50;;;2.30;;
76336;SDS011;65157;50.082;18.178;2024-02-04T06:44:38;3.30;;;2.30;;
76336;SDS011;65157;50.082;18.178;2024-02-04T06:47:05;2.90;;;2.40;;
76336;SDS011;65157;50.082;18.178;2024-02-04T06:49:31;3.80;;;3.30;;
76336;SDS011;65157;50.082;18.178;2024-02-04T06:51:58;4.40;;;3.30;;
76336;SDS011;65157;50.082;18.178;2024-02-04T06:54:24;1.80;;;1.70;;
76336;SDS011;65157;50.082;18.178;2024-02-04T06:56:51;2.60;;;2.00;;
76336;SDS011;65157;50.082;18.178;2024-02-04T06:59:18;2.70;;;2.00;;
76336;SDS011;65157;50.082;18.178;2024-02-04T07:01:44;4.00;;;2.60;;
76336;SDS011;65157;50.082;18.178;2024-02-04T07:04:11;4.70;;;2.50;;
76336;SDS011;65157;50.082;18.178;2024-02-04T07:06:38;4.70;;;2.50;;
76336;SDS011;65157;50.082;18.178;2024-02-04T07:09:04;2.50;;;2.20;;
76336;SDS011;65157;50.082;18.178;2024-02-04T07:11:31;2.90;;;2.70;;
76336;SDS011;65157;50.082;18.178;2024-02-04T07:13:58;4.50;;;3.70;;
76336;SDS011;65157;50.082;18.178;2024-02-04T07:16:25;6.50;;;3.30;;
76336;SDS011;65157;50.082;18.178;2024-02-04T07:18:52;3.40;;;3.10;;
76336;SDS011;65157;50.082;18.178;2024-02-04T07:21:18;4.90;;;3.70;;
76336;SDS011;65157;50.082;18.178;2024-02-04T07:23:45;3.30;;;2.90;;
76336;SDS011;65157;50.082;18.178;2024-02-04T07:26:12;4.40;;;3.70;;
76336;SDS011;65157;50.082;18.178;2024-02-04T07:31:06;4.10;;;3.30;;
76336;SDS011;65157;50.082;18.178;2024-02-04T07:33:32;4.40;;;3.10;;
76336;SDS011;65157;50.082;18.178;2024-02-04T07:36:01;4.70;;;3.60;;
76336;SDS011;65157;50.082;18.178;2024-02-04T07:38:29;4.70;;;4.30;;
76336;SDS011;65157;50.082;18.178;2024-02-04T07:40:55;6.70;;;4.60;;
76336;SDS011;65157;50.082;18.178;2024-02-04T07:43:22;6.10;;;4.20;;
76336;SDS011;65157;50.082;18.178;2024-02-04T07:45:49;6.60;;;4.70;;
76336;SDS011;65157;50.082;18.178;2024-02-04T07:48:15;5.40;;;3.70;;
76336;SDS011;65157;50.082;18.178;2024-02-04T07:50:42;5.60;;;5.10;;
76336;SDS011;65157;50.082;18.178;2024-02-04T07:53:09;9.90;;;5.00;;
76336;SDS011;65157;50.082;18.178;2024-02-04T07:55:36;6.60;;;4.10;;
76336;SDS011;65157;50.082;18.178;2024-02-04T07:58:02;5.60;;;3.60;;
76336;SDS011;65157;50.082;18.178;2024-02-04T08:00:29;7.30;;;4.40;;
76336;SDS011;65157;50.082;18.178;2024-02-04T08:02:56;8.50;;;4.30;;
76336;SDS011;65157;50.082;18.178;2024-02-04T08:05:23;6.50;;;3.60;;
76336;SDS011;65157;50.082;18.178;2024-02-04T08:07:50;2.40;;;2.20;;
76336;SDS011;65157;50.082;18.178;2024-02-04T08:10:16;3.70;;;2.50;;
76336;SDS011;65157;50.082;18.178;2024-02-04T08:12:43;5.10;;;3.10;;
76336;SDS011;65157;50.082;18.178;2024-02-04T08:15:10;4.30;;;2.80;;
76336;SDS011;65157;50.082;18.178;2024-02-04T08:17:36;3.00;;;2.80;;
76336;SDS011;65157;50.082;18.178;2024-02-04T08:20:03;4.80;;;3.90;;
76336;SDS011;65157;50.082;18.178;2024-02-04T08:24:57;6.00;;;5.20;;
76336;SDS011;65157;50.082;18.178;2024-02-04T08:27:24;7.50;;;4.20;;
76336;SDS011;65157;50.082;18.178;2024-02-04T08:29:51;3.70;;;3.30;;
76336;SDS011;65157;50.082;18.178;2024-02-04T08:32:18;4.70;;;3.30;;
76336;SDS011;65157;50.082;18.178;2024-02-04T08:34:45;4.70;;;3.20;;
76336;SDS011;65157;50.082;18.178;2024-02-04T08:37:11;4.70;;;3.40;;
76336;SDS011;65157;50.082;18.178;2024-02-04T08:39:38;7.30;;;3.60;;
76336;SDS011;65157;50.082;18.178;2024-02-04T08:42:05;5.80;;;3.50;;
76336;SDS011;65157;50.082;18.178;2024-02-04T08:44:31;6.30;;;4.50;;
76336;SDS011;65157;50.082;18.178;2024-02-04T08:46:58;8.70;;;4.30;;
76336;SDS011;65157;50.082;18.178;2024-02-04T08:49:25;7.60;;;4.90;;
76336;SDS011;65157;50.082;18.178;2024-02-04T08:51:51;8.90;;;4.60;;
76336;SDS011;65157;50.082;18.178;2024-02-04T08:54:18;7.20;;;4.10;;
76336;SDS011;65157;50.082;18.178;2024-02-04T08:56:45;8.60;;;4.90;;
76336;SDS011;65157;50.082;18.178;2024-02-04T08:59:11;8.10;;;5.00;;
76336;SDS011;65157;50.082;18.178;2024-02-04T09:01:38;8.80;;;5.40;;
76336;SDS011;65157;50.082;18.178;2024-02-04T09:04:05;8.90;;;5.80;;
76336;SDS011;65157;50.082;18.178;2024-02-04T09:06:31;6.50;;;4.00;;
76336;SDS011;65157;50.082;18.178;2024-02-04T09:08:58;5.30;;;4.50;;
76336;SDS011;65157;50.082;18.178;2024-02-04T09:11:25;6.50;;;4.60;;
76336;SDS011;65157;50.082;18.178;2024-02-04T09:13:51;6.30;;;4.50;;
76336;SDS011;65157;50.082;18.178;2024-02-04T09:16:18;4.70;;;3.80;;
76336;SDS011;65157;50.082;18.178;2024-02-04T09:18:45;4.60;;;3.70;;
76336;SDS011;65157;50.082;18.178;2024-02-04T09:21:13;3.70;;;3.10;;
76336;SDS011;65157;50.082;18.178;2024-02-04T09:23:39;4.60;;;3.30;;
76336;SDS011;65157;50.082;18.178;2024-02-04T09:26:07;5.80;;;3.60;;
76336;SDS011;65157;50.082;18.178;2024-02-04T09:28:33;7.10;;;4.60;;
76336;SDS011;65157;50.082;18.178;2024-02-04T09:31:00;5.90;;;5.20;;
76336;SDS011;65157;50.082;18.178;2024-02-04T09:33:26;7.70;;;4.90;;
76336;SDS011;65157;50.082;18.178;2024-02-04T09:35:53;12.40;;;6.20;;
76336;SDS011;65157;50.082;18.178;2024-02-04T09:38:20;7.50;;;4.80;;
76336;SDS011;65157;50.082;18.178;2024-02-04T09:40:46;7.70;;;4.40;;
76336;SDS011;65157;50.082;18.178;2024-02-04T09:43:13;7.90;;;5.00;;
76336;SDS011;65157;50.082;18.178;2024-02-04T09:45:41;12.90;;;6.70;;
76336;SDS011;65157;50.082;18.178;2024-02-04T09:48:08;9.30;;;5.20;;
76336;SDS011;65157;50.082;18.178;2024-02-04T09:50:35;11.60;;;6.30;;
76336;SDS011;65157;50.082;18.178;2024-02-04T09:53:02;13.50;;;8.20;;
76336;SDS011;65157;50.082;18.178;2024-02-04T09:55:33;12.00;;;6.40;;
76336;SDS011;65157;50.082;18.178;2024-02-04T09:58:01;16.10;;;7.10;;
76336;SDS011;65157;50.082;18.178;2024-02-04T10:00:27;11.00;;;7.20;;
76336;SDS011;65157;50.082;18.178;2024-02-04T10:02:56;14.00;;;8.70;;
76336;SDS011;65157;50.082;18.178;2024-02-04T10:05:24;14.20;;;8.10;;
76336;SDS011;65157;50.082;18.178;2024-02-04T10:07:51;13.60;;;8.00;;
76336;SDS011;65157;50.082;18.178;2024-02-04T10:10:18;12.40;;;7.30;;
76336;SDS011;65157;50.082;18.178;2024-02-04T10:12:45;10.10;;;6.70;;
76336;SDS011;65157;50.082;18.178;2024-02-04T10:15:11;9.00;;;6.20;;
76336;SDS011;65157;50.082;18.178;2024-02-04T10:17:41;11.50;;;7.00;;
76336;SDS011;65157;50.082;18.178;2024-02-04T10:20:10;10.60;;;6.50;;
76336;SDS011;65157;50.082;18.178;2024-02-04T10:22:37;11.20;;;7.50;;
76336;SDS011;65157;50.082;18.178;2024-02-04T10:25:07;12.70;;;7.60;;
76336;SDS011;65157;50.082;18.178;2024-02-04T10:27:34;12.60;;;6.80;;
76336;SDS011;65157;50.082;18.178;2024-02-04T10:30:02;12.60;;;7.40;;
76336;SDS011;65157;50.082;18.178;2024-02-04T10:35:00;9.00;;;5.10;;
76336;SDS011;65157;50.082;18.178;2024-02-04T10:37:26;11.80;;;6.50;;
76336;SDS011;65157;50.082;18.178;2024-02-04T10:39:53;9.30;;;6.40;;
76336;SDS011;65157;50.082;18.178;2024-02-04T10:42:27;9.40;;;7.10;;
76336;SDS011;65157;50.082;18.178;2024-02-04T10:44:53;9.30;;;6.60;;
76336;SDS011;65157;50.082;18.178;2024-02-04T10:47:25;12.60;;;7.40;;
76336;SDS011;65157;50.082;18.178;2024-02-04T10:49:56;13.40;;;8.20;;
76336;SDS011;65157;50.082;18.178;2024-02-04T10:52:26;11.50;;;7.00;;
76336;SDS011;65157;50.082;18.178;2024-02-04T10:54:54;7.10;;;4.70;;
76336;SDS011;65157;50.082;18.178;2024-02-04T10:57:22;6.80;;;4.90;;
76336;SDS011;65157;50.082;18.178;2024-02-04T11:02:16;3.50;;;2.30;;
76336;SDS011;65157;50.082;18.178;2024-02-04T11:04:43;3.00;;;2.80;;
76336;SDS011;65157;50.082;18.178;2024-02-04T11:07:14;1.80;;;1.70;;
76336;SDS011;65157;50.082;18.178;2024-02-04T11:09:41;1.80;;;1.70;;
76336;SDS011;65157;50.082;18.178;2024-02-04T11:12:09;2.40;;;2.30;;
76336;SDS011;65157;50.082;18.178;2024-02-04T11:14:39;2.00;;;1.90;;
76336;SDS011;65157;50.082;18.178;2024-02-04T11:23:02;4.10;;;2.70;;
76336;SDS011;65157;50.082;18.178;2024-02-04T11:25:53;3.00;;;2.40;;
76336;SDS011;65157;50.082;18.178;2024-02-04T11:28:24;2.40;;;2.30;;
76336;SDS011;65157;50.082;18.178;2024-02-04T11:30:52;2.30;;;2.10;;
76336;SDS011;65157;50.082;18.178;2024-02-04T11:33:19;4.50;;;4.00;;
76336;SDS011;65157;50.082;18.178;2024-02-04T11:36:03;10.90;;;6.20;;
76336;SDS011;65157;50.082;18.178;2024-02-04T11:38:31;5.60;;;4.20;;
76336;SDS011;65157;50.082;18.178;2024-02-04T11:40:59;3.10;;;2.60;;
76336;SDS011;65157;50.082;18.178;2024-02-04T11:43:26;3.70;;;2.70;;
76336;SDS011;65157;50.082;18.178;2024-02-04T11:45:52;4.00;;;2.50;;
76336;SDS011;65157;50.082;18.178;2024-02-04T11:48:19;3.00;;;2.60;;
76336;SDS011;65157;50.082;18.178;2024-02-04T11:50:52;3.90;;;2.40;;
76336;SDS011;65157;50.082;18.178;2024-02-04T11:53:20;3.40;;;3.10;;
76336;SDS011;65157;50.082;18.178;2024-02-04T11:55:47;2.70;;;1.80;;
76336;SDS011;65157;50.082;18.178;2024-02-04T11:58:13;2.60;;;2.20;;
76336;SDS011;65157;50.082;18.178;2024-02-04T12:00:42;2.90;;;2.60;;
76336;SDS011;65157;50.082;18.178;2024-02-04T12:03:09;2.70;;;2.50;;
76336;SDS011;65157;50.082;18.178;2024-02-04T12:05:36;2.90;;;2.70;;
76336;SDS011;65157;50.082;18.178;2024-02-04T12:08:05;2.60;;;2.10;;
76336;SDS011;65157;50.082;18.178;2024-02-04T12:10:33;2.50;;;2.30;;
76336;SDS011;65157;50.082;18.178;2024-02-04T12:13:03;14.10;;;4.90;;
76336;SDS011;65157;50.082;18.178;2024-02-04T12:15:31;11.30;;;5.60;;
76336;SDS011;65157;50.082;18.178;2024-02-04T12:18:09;12.40;;;5.30;;
76336;SDS011;65157;50.082;18.178;2024-02-04T12:20:37;17.30;;;7.00;;
76336;SDS011;65157;50.082;18.178;2024-02-04T12:23:05;12.10;;;5.40;;
76336;SDS011;65157;50.082;18.178;2024-02-04T12:25:34;6.70;;;4.00;;
76336;SDS011;65157;50.082;18.178;2024-02-04T12:28:02;2.50;;;2.20;;
76336;SDS011;65157;50.082;18.178;2024-02-04T12:30:30;2.60;;;2.30;;
76336;SDS011;65157;50.082;18.178;2024-02-04T12:33:04;1.70;;;1.60;;
76336;SDS011;65157;50.082;18.178;2024-02-04T12:35:32;2.50;;;2.40;;
76336;SDS011;65157;50.082;18.178;2024-02-04T12:37:59;2.80;;;2.60;;
76336;SDS011;65157;50.082;18.178;2024-02-04T12:40:27;2.30;;;2.10;;
76336;SDS011;65157;50.082;18.178;2024-02-04T12:42:59;2.30;;;2.20;;
76336;SDS011;65157;50.082;18.178;2024-02-04T12:45:27;1.80;;;1.60;;
76336;SDS011;65157;50.082;18.178;2024-02-04T12:47:57;1.80;;;1.70;;
76336;SDS011;65157;50.082;18.178;2024-02-04T12:53:02;1.60;;;1.60;;
76336;SDS011;65157;50.082;18.178;2024-02-04T12:55:33;2.00;;;1.90;;
76336;SDS011;65157;50.082;18.178;2024-02-04T12:58:05;1.70;;;1.60;;
76336;SDS011;65157;50.082;18.178;2024-02-04T13:00:36;4.70;;;3.20;;
76336;SDS011;65157;50.082;18.178;2024-02-04T13:03:04;5.10;;;4.10;;
76336;SDS011;65157;50.082;18.178;2024-02-04T13:05:32;2.80;;;2.20;;
76336;SDS011;65157;50.082;18.178;2024-02-04T13:07:59;3.80;;;2.70;;
76336;SDS011;65157;50.082;18.178;2024-02-04T13:10:27;3.60;;;2.90;;
76336;SDS011;65157;50.082;18.178;2024-02-04T13:13:04;5.20;;;4.50;;
76336;SDS011;65157;50.082;18.178;2024-02-04T13:15:42;5.90;;;3.60;;
76336;SDS011;65157;50.082;18.178;2024-02-04T13:18:09;5.10;;;3.90;;
76336;SDS011;65157;50.082;18.178;2024-02-04T13:20:37;7.90;;;4.10;;
76336;SDS011;65157;50.082;18.178;2024-02-04T13:23:04;4.90;;;3.10;;
76336;SDS011;65157;50.082;18.178;2024-02-04T13:25:31;3.70;;;3.10;;
76336;SDS011;65157;50.082;18.178;2024-02-04T13:27:58;3.70;;;3.00;;
76336;SDS011;65157;50.082;18.178;2024-02-04T13:32:51;4.10;;;3.10;;
76336;SDS011;65157;50.082;18.178;2024-02-04T13:35:19;7.50;;;4.80;;
76336;SDS011;65157;50.082;18.178;2024-02-04T13:37:46;7.40;;;5.20;;
76336;SDS011;65157;50.082;18.178;2024-02-04T13:40:19;6.50;;;4.80;;
76336;SDS011;65157;50.082;18.178;2024-02-04T13:42:46;5.50;;;4.50;;
76336;SDS011;65157;50.082;18.178;2024-02-04T13:45:13;6.50;;;4.50;;
76336;SDS011;65157;50.082;18.178;2024-02-04T13:47:40;4.80;;;3.90;;
76336;SDS011;65157;50.082;18.178;2024-02-04T13:50:08;5.00;;;3.60;;
76336;SDS011;65157;50.082;18.178;2024-02-04T13:52:36;3.70;;;3.20;;
76336;SDS011;65157;50.082;18.178;2024-02-04T13:55:03;4.90;;;3.60;;
76336;SDS011;65157;50.082;18.178;2024-02-04T13:57:30;3.80;;;3.40;;
76336;SDS011;65157;50.082;18.178;2024-02-04T13:59:58;5.40;;;4.70;;
76336;SDS011;65157;50.082;18.178;2024-02-04T14:02:25;8.70;;;6.60;;
76336;SDS011;65157;50.082;18.178;2024-02-04T14:04:52;8.90;;;8.00;;
76336;SDS011;65157;50.082;18.178;2024-02-04T14:07:19;9.50;;;8.20;;
76336;SDS011;65157;50.082;18.178;2024-02-04T14:09:46;12.70;;;8.80;;
76336;SDS011;65157;50.082;18.178;2024-02-04T14:12:12;7.50;;;6.40;;
76336;SDS011;65157;50.082;18.178;2024-02-04T14:14:39;7.00;;;5.20;;
76336;SDS011;65157;50.082;18.178;2024-02-04T14:17:07;6.20;;;5.40;;
76336;SDS011;65157;50.082;18.178;2024-02-04T14:19:34;9.10;;;7.30;;
76336;SDS011;65157;50.082;18.178;2024-02-04T14:22:00;12.60;;;9.00;;
76336;SDS011;65157;50.082;18.178;2024-02-04T14:24:27;13.40;;;8.20;;
76336;SDS011;65157;50.082;18.178;2024-02-04T14:26:57;12.20;;;7.00;;
76336;SDS011;65157;50.082;18.178;2024-02-04T14:29:25;9.70;;;5.90;;
76336;SDS011;65157;50.082;18.178;2024-02-04T14:31:52;10.90;;;7.30;;
76336;SDS011;65157;50.082;18.178;2024-02-04T14:34:19;10.50;;;6.50;;
76336;SDS011;65157;50.082;18.178;2024-02-04T14:36:45;6.40;;;5.30;;
76336;SDS011;65157;50.082;18.178;2024-02-04T14:39:12;7.50;;;4.80;;
76336;SDS011;65157;50.082;18.178;2024-02-04T14:41:39;5.80;;;3.80;;
76336;SDS011;65157;50.082;18.178;2024-02-04T14:44:06;5.20;;;4.40;;
76336;SDS011;65157;50.082;18.178;2024-02-04T14:46:35;4.70;;;4.10;;
76336;SDS011;65157;50.082;18.178;2024-02-04T14:49:03;5.70;;;4.40;;
76336;SDS011;65157;50.082;18.178;2024-02-04T14:51:30;3.60;;;3.30;;
76336;SDS011;65157;50.082;18.178;2024-02-04T14:53:57;3.30;;;3.00;;
76336;SDS011;65157;50.082;18.178;2024-02-04T14:56:24;4.50;;;3.30;;
76336;SDS011;65157;50.082;18.178;2024-02-04T14:58:50;4.40;;;4.00;;
76336;SDS011;65157;50.082;18.178;2024-02-04T15:01:17;3.60;;;3.30;;
76336;SDS011;65157;50.082;18.178;2024-02-04T15:03:44;4.40;;;3.10;;
76336;SDS011;65157;50.082;18.178;2024-02-04T15:06:10;4.10;;;3.40;;
76336;SDS011;65157;50.082;18.178;2024-02-04T15:08:38;5.40;;;4.90;;